Terminal Aerodrome Forecast
Issued by NWS Cleveland, OH

Home | Current Version | Previous Version | Text Only | Print | Product List | Glossary On
Versions: 1 2 3 4 5 6 7 8 9 10 11 12 13 14 15 16 17 18 19 20 21 22 23 24 25 26 27 28 29 30
000
FTUS41 KCLE 011700
TAFCLE
TAF
KCLE 011731Z 0118/0224 02005KT P6SM BKN025 OVC035
     FM011900 02005KT P6SM BKN035
     FM012200 05005KT P6SM SCT035
     FM020300 14003KT P6SM SKC
      TEMPO 0209/0213 4SM BR
     FM021600 16007KT P6SM BKN250=

USA.gov is the U.S. government's official web portal to all federal, state and local government web resources and services.